createdAt,value
2023-03-07T00:08:57.458Z,-0.80
2023-03-07T00:24:06.583Z,-0.60
2023-03-07T00:29:10.135Z,-0.70
2023-03-07T00:34:12.753Z,-0.60
2023-03-07T00:39:15.424Z,-0.70
2023-03-07T00:54:23.909Z,-0.60
2023-03-07T01:09:32.726Z,-0.80
2023-03-07T01:29:44.668Z,-0.90
2023-03-07T01:39:54.434Z,-1.00
2023-03-07T01:45:04.561Z,-1.10
2023-03-07T01:55:29.727Z,-1.30
2023-03-07T02:05:56.805Z,-1.30
2023-03-07T02:16:04.054Z,-1.30
2023-03-07T02:21:30.915Z,-1.30
2023-03-07T02:26:50.877Z,-1.40
2023-03-07T02:37:08.619Z,-1.50
2023-03-07T02:42:28.621Z,-1.60
2023-03-07T02:47:44.670Z,-1.60
2023-03-07T02:57:53.835Z,-1.50
2023-03-07T03:28:13.538Z,-1.80
2023-03-07T03:33:16.314Z,-1.70
2023-03-07T03:43:22.039Z,-1.80
2023-03-07T03:53:30.694Z,-2.10
2023-03-07T03:58:35.547Z,-2.10
2023-03-07T04:03:44.371Z,-2.00
2023-03-07T04:29:05.260Z,-2.20
2023-03-07T04:54:26.824Z,-2.70
2023-03-07T05:30:05.255Z,-2.30
2023-03-07T05:35:10.728Z,-2.30
2023-03-07T05:45:21.787Z,-2.00
2023-03-07T06:15:50.460Z,-1.40
2023-03-07T06:21:01.557Z,-1.40
2023-03-07T06:31:13.972Z,-0.80
2023-03-07T06:36:18.396Z,-0.90
2023-03-07T07:11:52.576Z,1.20
2023-03-07T07:32:05.412Z,2.10
2023-03-07T07:37:08.531Z,2.20
2023-03-07T07:42:12.458Z,2.00
2023-03-07T07:47:27.761Z,2.00
2023-03-07T07:57:33.586Z,1.70
2023-03-07T08:02:36.582Z,1.80
2023-03-07T08:12:48.137Z,1.90
2023-03-07T08:22:54.076Z,2.10
2023-03-07T08:33:01.085Z,2.40
2023-03-07T08:38:04.693Z,2.60
2023-03-07T08:43:07.263Z,2.70
2023-03-07T08:48:10.719Z,2.80
2023-03-07T08:53:17.001Z,3.20
2023-03-07T09:03:22.705Z,3.90
2023-03-07T09:08:26.505Z,3.70
2023-03-07T09:13:29.276Z,3.60
2023-03-07T09:18:32.143Z,3.60
2023-03-07T09:23:34.778Z,3.40
2023-03-07T09:28:37.669Z,3.20
2023-03-07T09:33:41.033Z,3.30
2023-03-07T09:38:44.445Z,3.20
2023-03-07T09:44:16.186Z,3.30
2023-03-07T09:49:44.696Z,3.50
2023-03-07T09:55:01.415Z,3.80
2023-03-07T10:00:29.715Z,4.20
2023-03-07T10:05:35.475Z,4.10
2023-03-07T10:10:54.244Z,4.30
2023-03-07T10:16:00.689Z,4.40
2023-03-07T10:21:21.052Z,4.60
2023-03-07T10:26:29.323Z,4.70
2023-03-07T10:31:39.675Z,4.80
2023-03-07T10:36:47.046Z,5.00
2023-03-07T10:41:49.765Z,5.20
2023-03-07T10:46:57.532Z,5.10
2023-03-07T10:52:25.012Z,5.10
2023-03-07T10:57:28.209Z,5.30
2023-03-07T11:02:45.453Z,5.60
2023-03-07T11:07:48.899Z,5.90
2023-03-07T11:12:51.647Z,5.80
2023-03-07T11:17:54.622Z,6.30
2023-03-07T11:23:24.731Z,6.10
2023-03-07T11:28:33.654Z,6.10
2023-03-07T11:33:53.123Z,6.20
2023-03-07T11:39:06.880Z,6.20
2023-03-07T11:44:23.860Z,6.30
2023-03-07T11:49:52.339Z,6.20
2023-03-07T11:55:21.370Z,6.30
2023-03-07T12:00:40.285Z,6.30
2023-03-07T12:05:57.830Z,6.60
2023-03-07T12:11:24.725Z,6.80
2023-03-07T12:16:30.875Z,6.50
2023-03-07T12:22:11.460Z,6.20
2023-03-07T12:27:30.970Z,5.20
2023-03-07T12:32:35.484Z,5.00
2023-03-07T12:37:52.901Z,4.90
2023-03-07T12:43:07.719Z,4.80
2023-03-07T12:48:19.302Z,4.70
2023-03-07T12:53:35.615Z,4.70
2023-03-07T12:58:57.491Z,4.70
2023-03-07T13:04:03.694Z,4.70
2023-03-07T13:09:06.687Z,4.60
2023-03-07T13:14:30.887Z,4.50
2023-03-07T13:19:36.579Z,4.60
2023-03-07T13:24:40.864Z,4.70
2023-03-07T13:30:04.979Z,4.70
2023-03-07T13:35:09.529Z,4.90
2023-03-07T13:40:30.476Z,4.90
2023-03-07T13:45:38.810Z,5.10
2023-03-07T13:50:56.429Z,5.00
2023-03-07T13:56:20.070Z,5.30
2023-03-07T14:01:39.331Z,5.40
2023-03-07T14:06:51.122Z,5.40
2023-03-07T14:12:18.756Z,5.40
2023-03-07T14:17:53.913Z,5.50
2023-03-07T14:23:12.525Z,5.50
2023-03-07T14:28:27.836Z,5.50
2023-03-07T14:33:32.581Z,5.20
2023-03-07T14:38:35.323Z,5.20
2023-03-07T14:43:49.047Z,5.20
2023-03-07T14:49:09.555Z,5.20
2023-03-07T14:54:20.722Z,5.10
2023-03-07T14:59:29.036Z,5.10
2023-03-07T15:04:33.204Z,5.00
2023-03-07T15:09:36.073Z,8.80
2023-03-07T15:15:01.771Z,5.00
2023-03-07T15:20:10.986Z,5.00
2023-03-07T15:25:25.700Z,5.00
2023-03-07T15:30:37.555Z,4.70
2023-03-07T15:35:40.477Z,4.60
2023-03-07T15:40:44.231Z,4.70
2023-03-07T15:46:04.401Z,4.50
2023-03-07T15:51:14.820Z,4.40
2023-03-07T15:56:30.471Z,4.40
2023-03-07T16:06:41.086Z,4.50
2023-03-07T16:11:45.259Z,4.40
2023-03-07T16:21:51.035Z,4.40
2023-03-07T16:26:53.710Z,4.50
2023-03-07T16:31:56.265Z,4.50
2023-03-07T16:36:59.394Z,4.50
2023-03-07T16:42:02.598Z,4.40
2023-03-07T16:47:12.333Z,4.30
2023-03-07T16:52:14.828Z,4.30
2023-03-07T16:57:17.903Z,4.30
2023-03-07T17:02:22.040Z,4.00
2023-03-07T17:12:29.537Z,4.10
2023-03-07T17:17:35.295Z,4.00
2023-03-07T17:27:46.908Z,3.90
2023-03-07T17:32:49.824Z,4.00
2023-03-07T17:37:53.488Z,4.10
2023-03-07T17:42:57.531Z,4.20
2023-03-07T17:53:03.172Z,4.20
2023-03-07T17:58:10.287Z,4.10
2023-03-07T18:03:13.255Z,4.10
2023-03-07T18:08:16.107Z,4.20
2023-03-07T18:13:20.623Z,4.20
2023-03-07T18:18:23.143Z,4.30
2023-03-07T18:23:27.640Z,4.30
2023-03-07T18:28:30.200Z,4.20
2023-03-07T18:33:34.375Z,4.30
2023-03-07T18:38:37.221Z,4.10
2023-03-07T18:43:40.377Z,4.10
2023-03-07T18:48:43.042Z,4.10
2023-03-07T18:53:45.764Z,4.10
2023-03-07T19:03:54.372Z,4.40
2023-03-07T19:08:56.919Z,4.50
2023-03-07T19:13:59.956Z,4.60
2023-03-07T19:24:08.036Z,4.80
2023-03-07T19:34:15.576Z,4.70
2023-03-07T19:39:20.749Z,4.70
2023-03-07T19:49:26.924Z,4.90
2023-03-07T19:54:30.317Z,5.00
2023-03-07T19:59:33.856Z,5.00
2023-03-07T20:04:36.595Z,4.90
2023-03-07T20:09:40.182Z,4.80
2023-03-07T20:14:44.721Z,4.80
2023-03-07T20:19:49.716Z,4.80
2023-03-07T20:24:52.778Z,4.70
2023-03-07T20:29:55.542Z,4.70
2023-03-07T20:35:03.391Z,4.60
2023-03-07T20:40:06.827Z,4.40
2023-03-07T20:45:09.867Z,4.40
2023-03-07T20:50:16.197Z,4.40
2023-03-07T20:55:18.760Z,4.30
2023-03-07T21:00:23.030Z,4.40
2023-03-07T21:05:25.801Z,4.20
2023-03-07T21:10:28.394Z,3.70
2023-03-07T21:25:39.370Z,1.80
2023-03-07T21:30:41.992Z,1.50
2023-03-07T21:35:44.727Z,1.50
2023-03-07T21:50:55.375Z,1.50
2023-03-07T21:56:00.519Z,1.50
2023-03-07T22:01:29.476Z,1.50
2023-03-07T22:06:32.272Z,1.40
2023-03-07T22:11:34.738Z,1.50
2023-03-07T22:21:41.296Z,1.40
2023-03-07T22:26:43.857Z,1.50
2023-03-07T22:36:51.191Z,1.50
2023-03-07T22:41:53.807Z,1.40
2023-03-07T22:51:59.419Z,1.50
2023-03-07T23:12:11.611Z,1.40
2023-03-07T23:27:19.839Z,1.50
2023-03-07T23:37:25.521Z,1.40
2023-03-07T23:42:28.378Z,1.30
2023-03-07T23:57:38.454Z,1.20
